Time;durP1;ratioP1;P1;durP2;ratioP2;P2;SDS_P1;SDS_P2;PMS_P1;PMS_P2;Temp;Humidity;BMP_temperature;BMP_pressure;BME280_temperature;BME280_humidity;BME280_pressure;Samples;Min_cycle;Max_cycle;Signal;HPM_P1;HPM_P2
2024/03/15 00:00:23;;;;;;;89.00;52.50;;;;;22.30;99705.00;;;;2056350;28;20207;-61
2024/03/15 00:01:23;;;;;;;79.28;51.00;;;;;22.30;99718.00;;;;2060612;28;20211;-63
2024/03/15 00:02:24;;;;;;;81.90;51.90;;;;;22.30;99722.00;;;;2046675;28;20211;-61
2024/03/15 00:03:24;;;;;;;82.83;50.27;;;;;22.30;99679.00;;;;2049784;28;20208;-61
2024/03/15 00:04:27;;;;;;;77.87;51.03;;;;;22.30;99709.00;;;;2056300;28;20307;-61
2024/03/15 00:05:29;;;;;;;86.68;53.13;;;;;22.30;99724.00;;;;2043821;28;20637;-61
2024/03/15 00:06:30;;;;;;;80.65;49.95;;;;;22.30;99707.00;;;;2048159;28;20227;-61
2024/03/15 00:07:30;;;;;;;79.30;49.07;;;;;22.30;99717.00;;;;2038255;28;20217;-61
2024/03/15 00:08:32;;;;;;;80.37;50.50;;;;;21.70;99714.00;;;;2058284;28;20212;-62
2024/03/15 00:09:33;;;;;;;84.68;49.15;;;;;22.30;99714.00;;;;2061258;28;20226;-62
2024/03/15 00:10:33;;;;;;;85.70;49.00;;;;;22.30;99695.00;;;;2067875;28;20223;-62
2024/03/15 00:11:33;;;;;;;75.60;48.30;;;;;21.50;99712.00;;;;2058317;28;20215;-61
2024/03/15 00:12:34;;;;;;;75.43;49.03;;;;;22.30;99662.00;;;;2057649;28;20219;-61
2024/03/15 00:13:35;;;;;;;78.70;50.20;;;;;22.30;99711.00;;;;2057269;28;20224;-61
2024/03/15 00:14:36;;;;;;;79.53;50.30;;;;;22.30;99711.00;;;;2043532;28;20625;-61
2024/03/15 00:15:37;;;;;;;77.87;48.77;;;;;22.30;99671.00;;;;2056368;28;20224;-61
2024/03/15 00:16:37;;;;;;;76.00;48.80;;;;;22.30;99706.00;;;;2056258;28;20332;-61
2024/03/15 00:17:37;;;;;;;71.60;49.37;;;;;22.30;99706.00;;;;2047598;28;20355;-61
2024/03/15 00:18:38;;;;;;;77.00;47.43;;;;;22.30;99707.00;;;;2059926;28;20222;-60
2024/03/15 00:19:39;;;;;;;73.73;47.77;;;;;22.30;99629.00;;;;2052740;28;20222;-61
2024/03/15 00:20:39;;;;;;;69.30;46.00;;;;;21.60;99709.00;;;;2057563;28;20666;-61
2024/03/15 00:21:41;;;;;;;73.73;46.67;;;;;22.30;99699.00;;;;2050586;28;20327;-62
2024/03/15 00:22:41;;;;;;;74.07;48.65;;;;;22.30;99699.00;;;;2053074;28;20255;-61
2024/03/15 00:23:42;;;;;;;76.53;46.63;;;;;22.30;99712.00;;;;2061937;28;20365;-61
2024/03/15 00:24:42;;;;;;;78.73;47.63;;;;;22.30;99728.00;;;;2052120;28;20579;-60
2024/03/15 00:25:42;;;;;;;72.90;46.47;;;;;22.30;99696.00;;;;2067519;28;20256;-61
2024/03/15 00:26:43;;;;;;;73.73;46.60;;;;;22.30;99697.00;;;;2063743;28;20223;-62
2024/03/15 00:27:43;;;;;;;68.03;45.23;;;;;22.30;99703.00;;;;2062687;28;20577;-65
2024/03/15 00:28:45;;;;;;;76.83;46.60;;;;;22.20;99702.00;;;;2058063;28;20251;-62
2024/03/15 00:29:45;;;;;;;78.80;45.33;;;;;22.20;99705.00;;;;2044541;28;20211;-61
2024/03/15 00:30:45;;;;;;;69.80;43.90;;;;;22.20;99682.00;;;;2043038;28;20228;-61
2024/03/15 00:31:46;;;;;;;72.07;44.20;;;;;22.30;99701.00;;;;2055345;28;20301;-61
2024/03/15 00:32:47;;;;;;;68.03;44.87;;;;;22.30;99696.00;;;;2060991;28;20215;-62
2024/03/15 00:33:47;;;;;;;70.13;43.83;;;;;22.20;99697.00;;;;2061705;28;20278;-61
2024/03/15 00:34:47;;;;;;;73.33;44.20;;;;;22.20;99691.00;;;;2041690;28;20270;-61
2024/03/15 00:35:49;;;;;;;68.80;44.47;;;;;22.20;99695.00;;;;2048466;28;20259;-61
2024/03/15 00:36:52;;;;;;;68.47;42.70;;;;;22.20;99703.00;;;;2049220;28;20224;-61
2024/03/15 00:37:52;;;;;;;66.43;44.22;;;;;22.20;99698.00;;;;2062248;28;20230;-62
2024/03/15 00:38:53;;;;;;;70.03;44.10;;;;;22.20;99697.00;;;;2058538;28;20230;-60
2024/03/15 00:39:54;;;;;;;60.40;41.13;;;;;22.20;99688.00;;;;2039708;28;20236;-61
2024/03/15 00:40:54;;;;;;;63.53;42.83;;;;;22.20;99695.00;;;;2041149;28;20260;-61
2024/03/15 00:41:54;;;;;;;64.40;41.90;;;;;22.20;99687.00;;;;2047611;28;20220;-62
2024/03/15 00:42:56;;;;;;;63.27;42.33;;;;;22.20;99684.00;;;;2053479;28;20224;-61
2024/03/15 00:43:56;;;;;;;64.88;40.97;;;;;22.20;99691.00;;;;2060859;28;20230;-61
2024/03/15 00:44:57;;;;;;;63.63;40.77;;;;;22.20;99693.00;;;;2036380;28;20223;-61
2024/03/15 00:45:57;;;;;;;66.25;42.05;;;;;22.20;99699.00;;;;2044009;28;20362;-63
2024/03/15 00:46:58;;;;;;;64.07;41.57;;;;;22.20;99699.00;;;;2053483;28;20303;-61
2024/03/15 00:48:01;;;;;;;63.30;40.20;;;;;22.20;99689.00;;;;2061635;28;20255;-61
2024/03/15 00:49:02;;;;;;;65.25;40.80;;;;;22.20;99690.00;;;;2052211;28;20334;-61
2024/03/15 00:50:03;;;;;;;59.33;39.47;;;;;22.20;99694.00;;;;2046491;28;20227;-61
2024/03/15 00:51:07;;;;;;;61.22;40.40;;;;;22.20;99695.00;;;;2049517;28;20343;-60
2024/03/15 00:52:08;;;;;;;61.53;39.60;;;;;22.20;99696.00;;;;2053544;28;20253;-60
2024/03/15 00:53:08;;;;;;;66.93;40.47;;;;;22.20;99690.00;;;;2052294;28;20636;-60
2024/03/15 00:54:09;;;;;;;54.10;37.87;;;;;22.20;99683.00;;;;2058010;28;21020;-60
2024/03/15 00:55:11;;;;;;;59.00;38.50;;;;;22.20;99712.00;;;;2054783;28;21074;-61
2024/03/15 00:56:11;;;;;;;57.70;37.92;;;;;22.20;99693.00;;;;2059338;28;20227;-60
2024/03/15 00:57:11;;;;;;;59.33;39.57;;;;;22.20;99691.00;;;;2055999;28;20218;-61
2024/03/15 00:58:12;;;;;;;61.97;39.37;;;;;22.20;99685.00;;;;2050885;28;20250;-61
2024/03/15 00:59:14;;;;;;;63.90;38.80;;;;;22.20;99689.00;;;;2053017;28;20231;-61
2024/03/15 01:00:14;;;;;;;54.17;37.00;;;;;22.10;99681.00;;;;2037210;28;20216;-61
2024/03/15 01:01:15;;;;;;;57.93;37.23;;;;;22.20;99687.00;;;;2046754;28;20224;-61
2024/03/15 01:02:15;;;;;;;56.33;37.13;;;;;22.20;99699.00;;;;2063843;28;20285;-62
2024/03/15 01:03:16;;;;;;;55.50;37.17;;;;;22.10;99683.00;;;;2060268;28;20239;-64
2024/03/15 01:04:16;;;;;;;52.50;34.70;;;;;22.20;99727.00;;;;2062127;28;20247;-61
2024/03/15 01:05:18;;;;;;;54.33;35.80;;;;;22.20;99686.00;;;;2055231;28;20918;-62
2024/03/15 01:06:19;;;;;;;54.22;36.75;;;;;22.20;99682.00;;;;2058992;28;20595;-62
2024/03/15 01:07:20;;;;;;;53.00;34.97;;;;;22.10;99684.00;;;;2051331;28;20215;-62
2024/03/15 01:08:20;;;;;;;49.30;33.40;;;;;22.10;99681.00;;;;2049109;28;20267;-62
2024/03/15 01:09:20;;;;;;;57.83;36.33;;;;;22.10;99684.00;;;;2055822;28;20459;-61
2024/03/15 01:10:21;;;;;;;54.40;35.00;;;;;22.20;99685.00;;;;2041529;28;20224;-61
2024/03/15 01:11:21;;;;;;;50.60;33.80;;;;;22.10;99685.00;;;;2057505;28;20219;-61
2024/03/15 01:12:22;;;;;;;53.43;35.47;;;;;22.10;99680.00;;;;2057137;28;20282;-61
2024/03/15 01:13:22;;;;;;;50.73;34.63;;;;;22.10;99684.00;;;;2051387;28;21071;-61
2024/03/15 01:14:23;;;;;;;49.93;34.00;;;;;21.60;99679.00;;;;2057889;28;20231;-62
2024/03/15 01:15:23;;;;;;;52.63;34.47;;;;;22.10;99679.00;;;;2044711;28;20307;-62
2024/03/15 01:16:26;;;;;;;51.00;33.77;;;;;22.10;99681.00;;;;2050782;28;20712;-62
2024/03/15 01:17:28;;;;;;;49.20;33.70;;;;;21.50;99679.00;;;;2053325;28;20859;-61
2024/03/15 01:18:28;;;;;;;49.92;33.55;;;;;22.10;99674.00;;;;2054878;28;20219;-61
2024/03/15 01:19:32;;;;;;;54.60;35.13;;;;;22.10;99669.00;;;;2046052;28;20208;-61
2024/03/15 01:20:33;;;;;;;49.05;32.35;;;;;22.10;99664.00;;;;2049579;28;20220;-61
2024/03/15 01:21:34;;;;;;;48.85;33.90;;;;;22.10;99669.00;;;;2060802;28;20735;-61
2024/03/15 01:22:34;;;;;;;46.70;31.33;;;;;22.10;99673.00;;;;2056964;28;20250;-61
2024/03/15 01:23:34;;;;;;;47.77;33.60;;;;;22.10;99673.00;;;;2051788;28;20680;-61
2024/03/15 01:24:35;;;;;;;49.20;31.30;;;;;22.10;99670.00;;;;2042538;28;20899;-61
2024/03/15 01:25:35;;;;;;;47.37;31.30;;;;;22.10;99670.00;;;;2064518;28;21159;-62
2024/03/15 01:26:36;;;;;;;50.03;32.00;;;;;22.10;99631.00;;;;2053820;28;20760;-62
2024/03/15 01:27:36;;;;;;;47.33;31.17;;;;;22.10;99658.00;;;;2056408;28;20222;-61
2024/03/15 01:28:36;;;;;;;45.23;30.67;;;;;22.10;99659.00;;;;2059708;28;20246;-62
2024/03/15 01:29:37;;;;;;;46.20;31.17;;;;;22.10;99659.00;;;;2048130;28;20726;-61
2024/03/15 01:30:37;;;;;;;48.17;31.67;;;;;22.10;99664.00;;;;2047591;28;21485;-61
2024/03/15 01:31:38;;;;;;;48.90;31.17;;;;;22.10;99659.00;;;;2042497;28;20327;-62
2024/03/15 01:32:38;;;;;;;44.10;30.60;;;;;22.10;99662.00;;;;2045953;28;20234;-59
2024/03/15 01:33:39;;;;;;;46.57;30.07;;;;;22.10;99659.00;;;;2057989;28;20234;-61
2024/03/15 01:34:40;;;;;;;47.97;30.60;;;;;22.10;99667.00;;;;2048011;28;20233;-61
2024/03/15 01:35:41;;;;;;;47.55;30.02;;;;;22.10;99669.00;;;;2069411;28;20238;-61
2024/03/15 01:36:41;;;;;;;45.17;29.53;;;;;22.10;99667.00;;;;2066062;28;20234;-60
2024/03/15 01:37:41;;;;;;;46.07;29.50;;;;;22.10;99663.00;;;;2060532;28;20230;-61
2024/03/15 01:38:42;;;;;;;42.60;28.40;;;;;22.10;99668.00;;;;2061439;28;20227;-61
2024/03/15 01:39:43;;;;;;;41.37;27.43;;;;;22.10;99669.00;;;;2052313;28;20227;-59
2024/03/15 01:40:43;;;;;;;44.80;29.20;;;;;22.10;99657.00;;;;2047118;28;20272;-62
2024/03/15 01:41:44;;;;;;;49.03;28.70;;;;;22.10;99663.00;;;;2051871;28;20314;-61
2024/03/15 01:42:44;;;;;;;43.33;28.27;;;;;22.10;99659.00;;;;2056341;28;20227;-61
2024/03/15 01:43:47;;;;;;;41.83;29.10;;;;;22.10;99661.00;;;;2048004;28;20475;-61
2024/03/15 01:44:56;;;;;;;44.88;29.63;;;;;22.10;99664.00;;;;2046272;28;20253;-60
2024/03/15 01:45:56;;;;;;;41.22;27.00;;;;;22.10;99670.00;;;;2044926;28;20294;-61
2024/03/15 01:46:59;;;;;;;41.87;28.43;;;;;22.10;99681.00;;;;2041946;28;21013;-59
2024/03/15 01:47:59;;;;;;;40.72;27.25;;;;;21.40;99669.00;;;;2061034;28;20609;-60
2024/03/15 01:49:00;;;;;;;41.40;26.83;;;;;22.00;99664.00;;;;2060192;28;20222;-60
2024/03/15 01:50:00;;;;;;;42.77;27.17;;;;;22.10;99666.00;;;;2058118;28;20265;-60
2024/03/15 01:51:01;;;;;;;36.93;26.03;;;;;22.00;99602.00;;;;2042180;28;20218;-60
2024/03/15 01:52:01;;;;;;;43.33;27.40;;;;;22.00;99655.00;;;;2041342;28;20220;-60
2024/03/15 01:53:05;;;;;;;39.23;26.27;;;;;22.00;99650.00;;;;2047399;28;20224;-61
2024/03/15 01:54:05;;;;;;;41.55;28.25;;;;;22.00;99655.00;;;;2044428;28;20219;-60
2024/03/15 01:55:08;;;;;;;39.65;26.67;;;;;22.00;99668.00;;;;2037758;28;20716;-60
2024/03/15 01:56:16;;;;;;;39.72;27.45;;;;;22.00;99658.00;;;;2049360;28;20211;-61
2024/03/15 01:57:17;;;;;;;40.40;25.77;;;;;22.00;99652.00;;;;2056778;28;20584;-61
2024/03/15 01:58:18;;;;;;;37.55;25.42;;;;;22.00;99660.00;;;;2054989;28;20266;-61
2024/03/15 01:59:18;;;;;;;37.33;24.93;;;;;22.00;99656.00;;;;2039896;28;20225;-61
2024/03/15 02:00:20;;;;;;;37.23;24.80;;;;;22.00;99661.00;;;;2037508;28;20466;-61
2024/03/15 02:01:21;;;;;;;39.53;26.30;;;;;22.00;99660.00;;;;2060124;28;20226;-61
2024/03/15 02:02:22;;;;;;;36.17;24.17;;;;;22.00;99657.00;;;;2049876;28;20960;-61
2024/03/15 02:03:23;;;;;;;42.35;26.92;;;;;22.00;99607.00;;;;2046596;28;20499;-61
2024/03/15 02:04:24;;;;;;;35.60;25.40;;;;;22.00;99661.00;;;;2055939;28;20239;-62
2024/03/15 02:05:25;;;;;;;37.33;25.20;;;;;22.00;99644.00;;;;2042230;28;20242;-61
2024/03/15 02:06:25;;;;;;;35.43;23.90;;;;;22.00;99656.00;;;;2054225;28;20218;-61
2024/03/15 02:07:28;;;;;;;32.57;23.40;;;;;22.00;99653.00;;;;2052793;28;20216;-61
2024/03/15 02:08:29;;;;;;;36.25;24.40;;;;;22.00;99653.00;;;;2056257;28;20306;-61
2024/03/15 02:09:30;;;;;;;36.33;24.50;;;;;22.00;99649.00;;;;2053677;28;20215;-64
2024/03/15 02:10:30;;;;;;;34.77;24.33;;;;;22.00;99650.00;;;;2053655;28;20270;-60
2024/03/15 02:11:30;;;;;;;36.80;24.80;;;;;22.00;99647.00;;;;2056201;28;20455;-61
2024/03/15 02:12:31;;;;;;;33.33;23.70;;;;;22.00;99654.00;;;;2047297;28;20243;-60
2024/03/15 02:13:31;;;;;;;32.80;22.60;;;;;22.00;99654.00;;;;2050832;28;20215;-60
2024/03/15 02:14:31;;;;;;;32.37;21.23;;;;;22.00;99650.00;;;;2032279;28;20243;-60
2024/03/15 02:15:34;;;;;;;33.13;23.73;;;;;22.00;99651.00;;;;2051264;28;20224;-59
2024/03/15 02:16:34;;;;;;;39.58;23.88;;;;;22.00;99647.00;;;;2063303;28;20206;-60
2024/03/15 02:17:42;;;;;;;33.30;22.93;;;;;22.00;99649.00;;;;2054043;28;20270;-61
2024/03/15 02:18:43;;;;;;;34.15;22.88;;;;;22.00;99646.00;;;;2068337;28;20309;-61
2024/03/15 02:19:46;;;;;;;36.22;23.00;;;;;22.00;99649.00;;;;2058134;28;20217;-61
2024/03/15 02:20:46;;;;;;;31.55;20.75;;;;;22.00;99672.00;;;;2066159;28;20214;-60
2024/03/15 02:21:47;;;;;;;30.90;21.83;;;;;22.00;99650.00;;;;2059214;28;20242;-60
2024/03/15 02:22:47;;;;;;;36.00;21.97;;;;;22.00;99651.00;;;;2049786;28;20305;-61
2024/03/15 02:23:48;;;;;;;32.60;21.50;;;;;22.00;99650.00;;;;2046797;28;20944;-61
2024/03/15 02:24:48;;;;;;;31.57;21.53;;;;;22.00;99640.00;;;;2040553;28;20797;-61
2024/03/15 02:25:49;;;;;;;35.60;21.80;;;;;22.00;99654.00;;;;2050931;28;20219;-61
2024/03/15 02:26:49;;;;;;;34.47;21.67;;;;;22.00;99652.00;;;;2052362;28;20291;-61
2024/03/15 02:27:50;;;;;;;30.70;21.93;;;;;22.00;99649.00;;;;2059440;28;20225;-61
2024/03/15 02:28:50;;;;;;;33.43;21.17;;;;;22.00;99655.00;;;;2050450;28;20219;-61
2024/03/15 02:29:52;;;;;;;31.63;20.60;;;;;22.00;99661.00;;;;2044674;28;20235;-61
2024/03/15 02:30:52;;;;;;;31.83;21.27;;;;;22.00;99649.00;;;;2068496;28;20214;-61
2024/03/15 02:31:53;;;;;;;33.20;20.40;;;;;21.90;99611.00;;;;2070299;28;20723;-61
2024/03/15 02:32:54;;;;;;;27.27;19.35;;;;;21.90;99647.00;;;;2061772;28;20602;-62
2024/03/15 02:33:55;;;;;;;27.60;19.52;;;;;21.90;99645.00;;;;2052316;28;20716;-61
2024/03/15 02:34:55;;;;;;;29.47;19.77;;;;;22.00;99648.00;;;;2045159;28;21899;-64
2024/03/15 02:35:55;;;;;;;30.63;20.53;;;;;22.00;99653.00;;;;2060821;28;20214;-63
2024/03/15 02:36:59;;;;;;;28.53;20.00;;;;;22.00;99652.00;;;;2060479;28;20698;-61
2024/03/15 02:38:00;;;;;;;32.92;19.33;;;;;22.00;99651.00;;;;2036144;28;20297;-60
2024/03/15 02:39:00;;;;;;;30.63;19.77;;;;;22.00;99651.00;;;;2044089;28;20220;-59
2024/03/15 02:40:00;;;;;;;28.33;18.90;;;;;21.90;99648.00;;;;2048804;28;20238;-60
2024/03/15 02:41:01;;;;;;;29.00;19.33;;;;;21.90;99649.00;;;;2052296;28;20220;-60
2024/03/15 02:42:05;;;;;;;30.17;20.47;;;;;21.90;99653.00;;;;2054777;28;20218;-59
2024/03/15 02:43:06;;;;;;;30.20;19.65;;;;;22.00;99649.00;;;;2052341;28;20215;-61
2024/03/15 02:44:09;;;;;;;31.17;18.88;;;;;21.90;99640.00;;;;2053511;28;20297;-61
2024/03/15 02:45:09;;;;;;;26.63;18.80;;;;;21.90;99647.00;;;;2048935;28;20300;-61
2024/03/15 02:46:10;;;;;;;29.87;19.60;;;;;22.00;99647.00;;;;2050496;28;20223;-61
2024/03/15 02:47:10;;;;;;;25.90;17.90;;;;;21.90;99648.00;;;;2056151;28;20374;-60
2024/03/15 02:48:11;;;;;;;27.70;19.17;;;;;22.00;99653.00;;;;2060548;28;20217;-61
2024/03/15 02:49:12;;;;;;;26.95;18.27;;;;;21.90;99644.00;;;;2059791;28;20215;-61
2024/03/15 02:50:12;;;;;;;26.73;18.03;;;;;21.90;99647.00;;;;2042409;28;20227;-60
2024/03/15 02:51:13;;;;;;;27.93;18.10;;;;;21.90;99643.00;;;;2043957;28;20224;-61
2024/03/15 02:52:13;;;;;;;27.90;18.97;;;;;21.90;99642.00;;;;2051606;28;20212;-61
2024/03/15 02:53:14;;;;;;;24.10;17.57;;;;;22.00;99644.00;;;;2060693;28;20312;-60
2024/03/15 02:54:14;;;;;;;26.17;17.20;;;;;21.90;99643.00;;;;2051404;28;20238;-61
2024/03/15 02:55:15;;;;;;;27.50;17.80;;;;;21.90;99642.00;;;;2043607;28;20239;-60
2024/03/15 02:56:15;;;;;;;27.20;17.43;;;;;21.90;99646.00;;;;2045986;28;20230;-61
2024/03/15 02:57:15;;;;;;;25.07;16.90;;;;;21.90;99647.00;;;;2053332;28;20889;-61
2024/03/15 02:58:18;;;;;;;25.13;16.60;;;;;21.90;99644.00;;;;2059124;28;20221;-61
2024/03/15 02:59:19;;;;;;;24.00;17.85;;;;;21.90;99653.00;;;;2045721;28;20220;-61
2024/03/15 03:00:20;;;;;;;20.87;16.13;;;;;21.90;99646.00;;;;2026336;28;20724;-61
2024/03/15 03:01:20;;;;;;;24.20;16.87;;;;;21.90;99642.00;;;;2054998;28;20219;-61
2024/03/15 03:02:23;;;;;;;22.47;15.70;;;;;21.90;99651.00;;;;2052209;28;20274;-62
2024/03/15 03:03:23;;;;;;;23.08;15.75;;;;;21.90;99641.00;;;;2038318;28;20299;-60
2024/03/15 03:04:24;;;;;;;25.17;17.50;;;;;21.90;99657.00;;;;2044047;28;20220;-61
2024/03/15 03:05:25;;;;;;;22.98;16.25;;;;;21.90;99647.00;;;;2040261;28;21088;-61
2024/03/15 03:06:26;;;;;;;23.52;16.58;;;;;21.90;99652.00;;;;2061970;28;20251;-61
2024/03/15 03:07:26;;;;;;;28.03;17.30;;;;;21.90;99648.00;;;;2055307;28;20215;-61
2024/03/15 03:08:27;;;;;;;25.13;15.90;;;;;21.90;99658.00;;;;2045374;28;20212;-61
2024/03/15 03:09:27;;;;;;;24.93;16.00;;;;;21.90;99664.00;;;;2044631;28;20247;-60
2024/03/15 03:10:27;;;;;;;22.53;15.23;;;;;21.90;99656.00;;;;2042247;28;20222;-60
2024/03/15 03:11:28;;;;;;;23.53;15.33;;;;;21.90;99661.00;;;;2065195;28;20218;-61
2024/03/15 03:12:29;;;;;;;24.73;16.40;;;;;21.90;99668.00;;;;2048872;28;20216;-61
2024/03/15 03:13:29;;;;;;;25.10;16.77;;;;;21.90;99614.00;;;;2057368;28;20214;-64
2024/03/15 03:14:29;;;;;;;25.07;16.13;;;;;21.90;99667.00;;;;2056356;28;20509;-61
2024/03/15 03:15:30;;;;;;;22.27;15.07;;;;;21.90;99657.00;;;;2043348;28;20233;-61
2024/03/15 03:16:34;;;;;;;23.30;15.67;;;;;21.90;99666.00;;;;2052310;28;20282;-61
2024/03/15 03:17:34;;;;;;;20.00;14.77;;;;;21.90;99657.00;;;;2058179;28;20691;-61
2024/03/15 03:18:34;;;;;;;27.23;15.57;;;;;21.90;99659.00;;;;2057959;28;20225;-61
2024/03/15 03:19:35;;;;;;;22.50;15.07;;;;;21.50;99659.00;;;;2042370;28;20207;-59
2024/03/15 03:20:35;;;;;;;19.40;14.53;;;;;21.90;99656.00;;;;2051110;28;20242;-61
2024/03/15 03:21:36;;;;;;;19.83;14.27;;;;;21.90;99653.00;;;;2059628;28;20281;-60
2024/03/15 03:22:37;;;;;;;19.80;14.17;;;;;21.90;99653.00;;;;2060303;28;20215;-61
2024/03/15 03:23:38;;;;;;;22.50;15.57;;;;;21.90;99655.00;;;;2052303;28;20470;-61
2024/03/15 03:24:38;;;;;;;22.50;14.82;;;;;21.90;99657.00;;;;2047272;28;20214;-61
2024/03/15 03:25:39;;;;;;;23.47;14.80;;;;;21.90;99657.00;;;;2059623;28;20711;-61
2024/03/15 03:26:39;;;;;;;19.47;14.30;;;;;21.90;99657.00;;;;2060166;28;20889;-61
2024/03/15 03:27:42;;;;;;;20.60;14.80;;;;;21.90;99659.00;;;;2058769;28;20215;-61
2024/03/15 03:28:43;;;;;;;20.58;14.25;;;;;21.90;99612.00;;;;2051469;28;20263;-62
2024/03/15 03:29:43;;;;;;;22.83;14.57;;;;;21.90;99652.00;;;;2044633;28;20211;-61
2024/03/15 03:30:44;;;;;;;19.67;13.63;;;;;21.80;99657.00;;;;2054705;28;20220;-61
2024/03/15 03:31:45;;;;;;;23.83;15.77;;;;;21.80;99656.00;;;;2054348;28;20254;-62
2024/03/15 03:32:45;;;;;;;18.80;13.87;;;;;21.90;99659.00;;;;2049771;28;20296;-62
2024/03/15 03:33:45;;;;;;;21.93;15.07;;;;;21.80;99660.00;;;;2061327;28;20713;-61
2024/03/15 03:34:45;;;;;;;21.80;14.00;;;;;21.80;99655.00;;;;2050914;28;20219;-61
2024/03/15 03:35:46;;;;;;;18.50;13.17;;;;;21.90;99658.00;;;;2060563;28;20917;-61
2024/03/15 03:36:46;;;;;;;22.03;14.10;;;;;21.80;99659.00;;;;2063317;28;20709;-61
2024/03/15 03:37:46;;;;;;;19.40;13.87;;;;;21.90;99662.00;;;;2052032;28;20219;-62
2024/03/15 03:38:47;;;;;;;20.97;13.10;;;;;21.80;99652.00;;;;2047982;28;20219;-62
2024/03/15 03:39:48;;;;;;;21.20;13.47;;;;;21.80;99658.00;;;;2052473;28;20212;-61
2024/03/15 03:40:48;;;;;;;20.30;13.43;;;;;21.90;99658.00;;;;2057173;28;20239;-61
2024/03/15 03:41:48;;;;;;;17.13;13.07;;;;;21.80;99650.00;;;;2064566;28;20219;-62
2024/03/15 03:42:49;;;;;;;17.10;13.53;;;;;21.80;99507.00;;;;2058065;28;20219;-62
2024/03/15 03:43:49;;;;;;;19.90;12.80;;;;;21.80;99660.00;;;;2052095;28;20215;-61
2024/03/15 03:44:50;;;;;;;18.20;12.60;;;;;21.80;99648.00;;;;2042017;28;20304;-61
2024/03/15 03:45:50;;;;;;;16.90;12.43;;;;;21.80;99650.00;;;;2055072;28;20219;-61
2024/03/15 03:46:50;;;;;;;20.33;13.23;;;;;21.80;99649.00;;;;2059280;28;20309;-61
2024/03/15 03:47:51;;;;;;;17.40;12.00;;;;;21.80;99651.00;;;;2054260;28;20227;-61
2024/03/15 03:48:51;;;;;;;16.30;11.87;;;;;21.80;99657.00;;;;2053945;28;20230;-60
2024/03/15 03:49:51;;;;;;;19.60;11.90;;;;;21.80;99653.00;;;;2053236;28;20254;-61
2024/03/15 03:50:52;;;;;;;18.83;12.20;;;;;21.90;99658.00;;;;2062328;28;20227;-61
2024/03/15 03:51:52;;;;;;;19.20;12.30;;;;;21.80;99657.00;;;;2049044;28;20224;-61
2024/03/15 03:52:53;;;;;;;18.17;12.30;;;;;21.80;99645.00;;;;2042376;28;20295;-61
2024/03/15 03:53:53;;;;;;;17.93;12.50;;;;;21.80;99660.00;;;;2052954;28;20595;-62
2024/03/15 03:54:53;;;;;;;18.63;12.00;;;;;21.80;99655.00;;;;2050904;28;20683;-61
2024/03/15 03:55:54;;;;;;;17.00;11.80;;;;;21.80;99647.00;;;;2057566;28;20223;-60
2024/03/15 03:56:54;;;;;;;17.40;11.97;;;;;21.80;99659.00;;;;2052274;28;20254;-61
2024/03/15 03:57:55;;;;;;;16.90;11.43;;;;;21.80;99653.00;;;;2060636;28;20269;-61
2024/03/15 03:58:55;;;;;;;17.23;11.57;;;;;21.80;99658.00;;;;2055329;28;20376;-61
2024/03/15 03:59:56;;;;;;;16.40;11.37;;;;;21.80;99646.00;;;;2052288;28;20457;-60
2024/03/15 04:00:58;;;;;;;17.80;11.57;;;;;21.80;99654.00;;;;2052701;28;20322;-60
2024/03/15 04:01:59;;;;;;;16.48;11.90;;;;;21.80;99658.00;;;;2053488;28;20219;-62
2024/03/15 04:02:59;;;;;;;16.87;11.53;;;;;21.80;99663.00;;;;2057241;28;20228;-61
2024/03/15 04:04:00;;;;;;;16.13;10.93;;;;;21.80;99689.00;;;;2059376;28;20277;-61
2024/03/15 04:05:01;;;;;;;13.77;10.43;;;;;21.80;99654.00;;;;2035545;28;20216;-60
2024/03/15 04:06:01;;;;;;;15.73;11.37;;;;;21.80;99660.00;;;;2044304;28;20464;-60
2024/03/15 04:07:02;;;;;;;15.57;10.40;;;;;21.80;99654.00;;;;2061286;28;20222;-62
2024/03/15 04:08:02;;;;;;;18.03;11.67;;;;;21.80;99648.00;;;;2065941;28;20225;-61
2024/03/15 04:09:03;;;;;;;15.50;11.13;;;;;21.80;99655.00;;;;2053355;28;20305;-63
2024/03/15 04:10:03;;;;;;;16.27;10.47;;;;;21.80;99661.00;;;;2033548;28;20579;-62
2024/03/15 04:11:04;;;;;;;13.30;10.00;;;;;21.80;99656.00;;;;2054238;28;20306;-61
2024/03/15 04:12:04;;;;;;;15.30;10.30;;;;;21.80;99648.00;;;;2059701;28;20220;-61
2024/03/15 04:13:05;;;;;;;15.47;10.40;;;;;21.80;99658.00;;;;2035306;28;20217;-63
2024/03/15 04:14:05;;;;;;;17.73;11.83;;;;;21.80;99666.00;;;;2052548;28;20216;-63
2024/03/15 04:15:06;;;;;;;16.03;10.30;;;;;21.80;99653.00;;;;2042918;28;20239;-62
2024/03/15 04:16:06;;;;;;;16.70;11.10;;;;;21.80;99657.00;;;;2053559;28;20222;-61
2024/03/15 04:17:08;;;;;;;15.47;10.07;;;;;21.80;99657.00;;;;2052723;28;20994;-62
2024/03/15 04:18:08;;;;;;;13.57;9.40;;;;;21.80;99652.00;;;;2051908;28;20298;-62
2024/03/15 04:19:09;;;;;;;16.83;10.60;;;;;21.80;99654.00;;;;2045227;28;20227;-62
2024/03/15 04:20:15;;;;;;;13.73;9.80;;;;;21.80;99651.00;;;;2043407;28;20220;-61
2024/03/15 04:21:16;;;;;;;15.23;10.32;;;;;21.80;99649.00;;;;2051388;28;20212;-61
2024/03/15 04:22:16;;;;;;;13.53;9.73;;;;;21.80;99655.00;;;;2053381;28;20279;-60
2024/03/15 04:23:20;;;;;;;15.00;9.87;;;;;21.80;99609.00;;;;2052452;28;20212;-61
2024/03/15 04:24:22;;;;;;;14.38;9.73;;;;;21.80;99648.00;;;;2047093;28;20231;-61
2024/03/15 04:25:23;;;;;;;13.73;10.40;;;;;21.80;99648.00;;;;2042423;28;20281;-61
2024/03/15 04:26:26;;;;;;;14.57;9.90;;;;;21.80;99643.00;;;;2058546;28;20623;-62
2024/03/15 04:27:28;;;;;;;12.73;9.18;;;;;21.80;99576.00;;;;2053264;28;20224;-61
2024/03/15 04:28:29;;;;;;;13.25;9.98;;;;;21.80;99643.00;;;;2051739;28;20353;-61
2024/03/15 04:29:30;;;;;;;14.57;10.47;;;;;21.80;99639.00;;;;2053826;28;20938;-61
2024/03/15 04:30:31;;;;;;;13.18;9.65;;;;;21.80;99638.00;;;;2042344;28;20649;-61
2024/03/15 04:31:32;;;;;;;14.30;9.30;;;;;21.80;99647.00;;;;2046635;28;20223;-61
2024/03/15 04:32:34;;;;;;;13.63;9.70;;;;;21.80;99638.00;;;;2048568;28;20248;-61
2024/03/15 04:33:35;;;;;;;12.50;8.98;;;;;21.80;99639.00;;;;2043745;28;20463;-61
2024/03/15 04:34:37;;;;;;;13.40;10.00;;;;;21.80;99635.00;;;;2038118;28;20712;-61
2024/03/15 04:35:37;;;;;;;13.20;9.68;;;;;21.70;99632.00;;;;2050604;28;20310;-63
2024/03/15 04:36:37;;;;;;;12.50;8.97;;;;;21.80;99643.00;;;;2053329;28;20215;-64
2024/03/15 04:37:38;;;;;;;14.87;9.67;;;;;21.80;99639.00;;;;2049830;28;20247;-62
2024/03/15 04:38:38;;;;;;;14.87;9.30;;;;;21.80;99656.00;;;;2048408;28;20327;-61
2024/03/15 04:39:39;;;;;;;13.37;9.83;;;;;21.80;99639.00;;;;2037694;28;20227;-61
2024/03/15 04:40:39;;;;;;;12.73;8.63;;;;;21.80;99636.00;;;;2052879;28;20274;-61
2024/03/15 04:41:39;;;;;;;13.67;9.40;;;;;21.70;99640.00;;;;2053722;28;20342;-61
2024/03/15 04:42:40;;;;;;;13.03;8.83;;;;;21.80;99639.00;;;;2050363;28;20278;-61
2024/03/15 04:43:40;;;;;;;12.63;8.23;;;;;21.80;99640.00;;;;2040420;28;20221;-61
2024/03/15 04:44:40;;;;;;;11.23;7.77;;;;;21.70;99632.00;;;;2039544;28;20219;-63
2024/03/15 04:45:41;;;;;;;13.40;9.13;;;;;21.70;99639.00;;;;2063851;28;20218;-61
2024/03/15 04:46:42;;;;;;;11.30;8.18;;;;;21.20;99632.00;;;;2065162;28;21269;-62
2024/03/15 04:47:42;;;;;;;11.43;8.87;;;;;21.70;99628.00;;;;2058922;28;20311;-60
2024/03/15 04:48:43;;;;;;;13.40;8.90;;;;;21.80;99660.00;;;;2050902;28;20736;-61
2024/03/15 04:49:43;;;;;;;13.83;8.73;;;;;21.80;99633.00;;;;2048229;28;20211;-62
2024/03/15 04:50:44;;;;;;;12.70;8.40;;;;;21.70;99639.00;;;;2059968;28;20222;-61
2024/03/15 04:51:45;;;;;;;12.65;8.65;;;;;21.80;99478.00;;;;2059928;28;20220;-61
2024/03/15 04:52:45;;;;;;;12.03;8.30;;;;;21.80;99642.00;;;;2060029;28;20279;-61
2024/03/15 04:53:45;;;;;;;13.10;9.00;;;;;21.80;99641.00;;;;2050718;28;20220;-61
2024/03/15 04:54:46;;;;;;;15.30;10.03;;;;;21.80;99647.00;;;;2039776;28;20220;-62
2024/03/15 04:55:46;;;;;;;13.77;8.87;;;;;21.80;99645.00;;;;2058558;28;20216;-62
2024/03/15 04:56:47;;;;;;;12.43;8.40;;;;;21.80;99644.00;;;;2063544;28;20462;-61
2024/03/15 04:57:48;;;;;;;11.25;7.70;;;;;21.70;99650.00;;;;2060907;28;20223;-61